sensor_id;sensor_type;location;lat;lon;timestamp;P1;durP1;ratioP1;P2;durP2;ratioP2
40290;SDS011;26000;48.304;13.626;2023-03-01T00:01:45;33.92;;;22.02;;
40290;SDS011;26000;48.304;13.626;2023-03-01T00:04:10;34.78;;;22.92;;
40290;SDS011;26000;48.304;13.626;2023-03-01T00:06:36;34.35;;;22.30;;
40290;SDS011;26000;48.304;13.626;2023-03-01T00:09:02;32.20;;;21.45;;
40290;SDS011;26000;48.304;13.626;2023-03-01T00:11:29;32.67;;;21.33;;
40290;SDS011;26000;48.304;13.626;2023-03-01T00:13:57;32.72;;;21.85;;
40290;SDS011;26000;48.304;13.626;2023-03-01T00:16:25;32.53;;;21.92;;
40290;SDS011;26000;48.304;13.626;2023-03-01T00:18:55;34.10;;;22.90;;
40290;SDS011;26000;48.304;13.626;2023-03-01T00:21:21;31.20;;;21.52;;
40290;SDS011;26000;48.304;13.626;2023-03-01T00:23:48;32.38;;;21.63;;
40290;SDS011;26000;48.304;13.626;2023-03-01T00:26:14;32.78;;;21.88;;
40290;SDS011;26000;48.304;13.626;2023-03-01T00:28:41;33.92;;;23.13;;
40290;SDS011;26000;48.304;13.626;2023-03-01T00:31:09;36.20;;;22.67;;
40290;SDS011;26000;48.304;13.626;2023-03-01T00:33:38;31.75;;;21.98;;
40290;SDS011;26000;48.304;13.626;2023-03-01T00:36:04;36.30;;;22.48;;
40290;SDS011;26000;48.304;13.626;2023-03-01T00:38:30;34.90;;;22.63;;
40290;SDS011;26000;48.304;13.626;2023-03-01T00:41:04;31.88;;;21.10;;
40290;SDS011;26000;48.304;13.626;2023-03-01T00:43:34;31.38;;;20.55;;
40290;SDS011;26000;48.304;13.626;2023-03-01T00:46:07;32.22;;;22.05;;
40290;SDS011;26000;48.304;13.626;2023-03-01T00:48:38;33.78;;;21.98;;
40290;SDS011;26000;48.304;13.626;2023-03-01T00:51:07;34.35;;;21.30;;
40290;SDS011;26000;48.304;13.626;2023-03-01T00:53:37;33.10;;;22.23;;
40290;SDS011;26000;48.304;13.626;2023-03-01T00:56:04;35.67;;;21.27;;
40290;SDS011;26000;48.304;13.626;2023-03-01T00:58:31;36.17;;;21.90;;
40290;SDS011;26000;48.304;13.626;2023-03-01T01:00:57;34.28;;;20.92;;
40290;SDS011;26000;48.304;13.626;2023-03-01T01:03:23;33.75;;;21.92;;
40290;SDS011;26000;48.304;13.626;2023-03-01T01:05:52;30.60;;;20.85;;
40290;SDS011;26000;48.304;13.626;2023-03-01T01:08:18;31.17;;;20.95;;
40290;SDS011;26000;48.304;13.626;2023-03-01T01:10:45;34.00;;;22.52;;
40290;SDS011;26000;48.304;13.626;2023-03-01T01:13:11;32.22;;;22.13;;
40290;SDS011;26000;48.304;13.626;2023-03-01T01:15:38;34.40;;;21.83;;
40290;SDS011;26000;48.304;13.626;2023-03-01T01:18:04;31.20;;;21.50;;
40290;SDS011;26000;48.304;13.626;2023-03-01T01:20:30;34.75;;;22.13;;
40290;SDS011;26000;48.304;13.626;2023-03-01T01:22:55;32.75;;;21.33;;
40290;SDS011;26000;48.304;13.626;2023-03-01T01:25:21;33.85;;;22.50;;
40290;SDS011;26000;48.304;13.626;2023-03-01T01:27:49;31.38;;;22.15;;
40290;SDS011;26000;48.304;13.626;2023-03-01T01:30:16;31.33;;;21.38;;
40290;SDS011;26000;48.304;13.626;2023-03-01T01:32:42;35.50;;;22.30;;
40290;SDS011;26000;48.304;13.626;2023-03-01T01:35:07;32.40;;;21.63;;
40290;SDS011;26000;48.304;13.626;2023-03-01T01:37:33;34.63;;;22.85;;
40290;SDS011;26000;48.304;13.626;2023-03-01T01:39:59;33.72;;;22.38;;
40290;SDS011;26000;48.304;13.626;2023-03-01T01:42:26;37.28;;;23.08;;
40290;SDS011;26000;48.304;13.626;2023-03-01T01:47:48;32.53;;;21.48;;
40290;SDS011;26000;48.304;13.626;2023-03-01T01:50:16;31.38;;;20.52;;
40290;SDS011;26000;48.304;13.626;2023-03-01T01:52:44;30.80;;;20.98;;
40290;SDS011;26000;48.304;13.626;2023-03-01T01:55:16;33.13;;;21.65;;
40290;SDS011;26000;48.304;13.626;2023-03-01T01:57:49;31.75;;;20.90;;
40290;SDS011;26000;48.304;13.626;2023-03-01T02:00:21;35.42;;;21.83;;
40290;SDS011;26000;48.304;13.626;2023-03-01T02:02:49;33.90;;;22.00;;
40290;SDS011;26000;48.304;13.626;2023-03-01T02:05:33;32.22;;;20.67;;
40290;SDS011;26000;48.304;13.626;2023-03-01T02:08:08;31.52;;;20.25;;
40290;SDS011;26000;48.304;13.626;2023-03-01T02:10:37;32.13;;;21.27;;
40290;SDS011;26000;48.304;13.626;2023-03-01T02:13:04;36.65;;;22.80;;
40290;SDS011;26000;48.304;13.626;2023-03-01T02:15:34;33.20;;;21.65;;
40290;SDS011;26000;48.304;13.626;2023-03-01T02:18:01;32.40;;;21.20;;
40290;SDS011;26000;48.304;13.626;2023-03-01T02:20:32;33.03;;;21.27;;
40290;SDS011;26000;48.304;13.626;2023-03-01T02:23:10;32.95;;;21.35;;
40290;SDS011;26000;48.304;13.626;2023-03-01T02:30:42;33.67;;;21.50;;
40290;SDS011;26000;48.304;13.626;2023-03-01T02:33:29;31.55;;;20.83;;
40290;SDS011;26000;48.304;13.626;2023-03-01T02:36:01;32.00;;;20.58;;
40290;SDS011;26000;48.304;13.626;2023-03-01T02:38:30;34.42;;;21.10;;
40290;SDS011;26000;48.304;13.626;2023-03-01T02:40:56;34.05;;;21.45;;
40290;SDS011;26000;48.304;13.626;2023-03-01T02:43:24;34.63;;;21.15;;
40290;SDS011;26000;48.304;13.626;2023-03-01T02:45:53;34.80;;;21.63;;
40290;SDS011;26000;48.304;13.626;2023-03-01T02:48:23;34.55;;;21.60;;
40290;SDS011;26000;48.304;13.626;2023-03-01T02:56:32;30.67;;;19.63;;
40290;SDS011;26000;48.304;13.626;2023-03-01T02:58:59;31.20;;;20.52;;
40290;SDS011;26000;48.304;13.626;2023-03-01T03:01:25;34.70;;;20.88;;
40290;SDS011;26000;48.304;13.626;2023-03-01T03:04:02;31.35;;;20.77;;
40290;SDS011;26000;48.304;13.626;2023-03-01T03:06:31;34.25;;;20.98;;
40290;SDS011;26000;48.304;13.626;2023-03-01T03:08:56;31.55;;;20.38;;
40290;SDS011;26000;48.304;13.626;2023-03-01T03:11:22;32.05;;;21.88;;
40290;SDS011;26000;48.304;13.626;2023-03-01T03:13:48;33.83;;;21.73;;
40290;SDS011;26000;48.304;13.626;2023-03-01T03:16:14;29.75;;;20.65;;
40290;SDS011;26000;48.304;13.626;2023-03-01T03:18:40;34.33;;;20.65;;
40290;SDS011;26000;48.304;13.626;2023-03-01T03:21:10;35.55;;;21.48;;
40290;SDS011;26000;48.304;13.626;2023-03-01T03:23:37;34.47;;;21.58;;
40290;SDS011;26000;48.304;13.626;2023-03-01T03:26:03;37.22;;;22.92;;
40290;SDS011;26000;48.304;13.626;2023-03-01T03:28:34;33.65;;;20.67;;
40290;SDS011;26000;48.304;13.626;2023-03-01T03:31:00;35.13;;;22.00;;
40290;SDS011;26000;48.304;13.626;2023-03-01T03:33:29;33.38;;;21.55;;
40290;SDS011;26000;48.304;13.626;2023-03-01T03:35:55;33.75;;;21.52;;
40290;SDS011;26000;48.304;13.626;2023-03-01T03:38:20;35.28;;;21.23;;
40290;SDS011;26000;48.304;13.626;2023-03-01T03:40:52;34.30;;;21.63;;
40290;SDS011;26000;48.304;13.626;2023-03-01T03:43:27;33.35;;;20.73;;
40290;SDS011;26000;48.304;13.626;2023-03-01T03:45:53;35.22;;;22.48;;
40290;SDS011;26000;48.304;13.626;2023-03-01T03:48:19;39.60;;;23.17;;
40290;SDS011;26000;48.304;13.626;2023-03-01T03:50:49;37.72;;;22.25;;
40290;SDS011;26000;48.304;13.626;2023-03-01T03:53:17;40.15;;;23.42;;
40290;SDS011;26000;48.304;13.626;2023-03-01T03:55:44;36.90;;;22.67;;
40290;SDS011;26000;48.304;13.626;2023-03-01T03:58:10;37.40;;;22.73;;
40290;SDS011;26000;48.304;13.626;2023-03-01T04:03:03;42.28;;;23.70;;
40290;SDS011;26000;48.304;13.626;2023-03-01T04:05:29;37.88;;;23.58;;
40290;SDS011;26000;48.304;13.626;2023-03-01T04:07:55;38.22;;;23.08;;
40290;SDS011;26000;48.304;13.626;2023-03-01T04:10:28;35.13;;;22.02;;
40290;SDS011;26000;48.304;13.626;2023-03-01T04:12:55;40.05;;;23.30;;
40290;SDS011;26000;48.304;13.626;2023-03-01T04:15:22;37.13;;;23.00;;
40290;SDS011;26000;48.304;13.626;2023-03-01T04:17:49;40.25;;;24.13;;
40290;SDS011;26000;48.304;13.626;2023-03-01T04:20:18;39.45;;;22.92;;
40290;SDS011;26000;48.304;13.626;2023-03-01T04:22:50;35.47;;;23.48;;
40290;SDS011;26000;48.304;13.626;2023-03-01T04:25:17;38.38;;;24.38;;
40290;SDS011;26000;48.304;13.626;2023-03-01T04:27:44;36.55;;;22.98;;
40290;SDS011;26000;48.304;13.626;2023-03-01T04:30:09;39.60;;;23.50;;
40290;SDS011;26000;48.304;13.626;2023-03-01T04:32:35;41.03;;;24.10;;
40290;SDS011;26000;48.304;13.626;2023-03-01T04:35:01;41.50;;;24.85;;
40290;SDS011;26000;48.304;13.626;2023-03-01T04:37:27;40.15;;;24.05;;
40290;SDS011;26000;48.304;13.626;2023-03-01T04:39:52;41.38;;;24.58;;
40290;SDS011;26000;48.304;13.626;2023-03-01T04:42:18;42.03;;;26.35;;
40290;SDS011;26000;48.304;13.626;2023-03-01T04:44:44;43.80;;;25.30;;
40290;SDS011;26000;48.304;13.626;2023-03-01T04:47:11;43.90;;;25.73;;
40290;SDS011;26000;48.304;13.626;2023-03-01T04:49:37;42.20;;;25.70;;
40290;SDS011;26000;48.304;13.626;2023-03-01T04:52:03;43.90;;;26.20;;
40290;SDS011;26000;48.304;13.626;2023-03-01T04:54:32;47.40;;;26.85;;
40290;SDS011;26000;48.304;13.626;2023-03-01T04:56:59;44.20;;;25.25;;
40290;SDS011;26000;48.304;13.626;2023-03-01T04:59:25;41.53;;;25.38;;
40290;SDS011;26000;48.304;13.626;2023-03-01T05:01:51;44.72;;;25.55;;
40290;SDS011;26000;48.304;13.626;2023-03-01T05:04:20;43.55;;;25.83;;
40290;SDS011;26000;48.304;13.626;2023-03-01T05:06:46;44.63;;;26.20;;
40290;SDS011;26000;48.304;13.626;2023-03-01T05:09:12;43.00;;;25.70;;
40290;SDS011;26000;48.304;13.626;2023-03-01T05:11:37;43.75;;;26.15;;
40290;SDS011;26000;48.304;13.626;2023-03-01T05:14:04;42.97;;;25.90;;
40290;SDS011;26000;48.304;13.626;2023-03-01T05:16:30;47.92;;;25.88;;
40290;SDS011;26000;48.304;13.626;2023-03-01T05:18:56;43.58;;;26.52;;
40290;SDS011;26000;48.304;13.626;2023-03-01T05:21:23;41.03;;;25.67;;
40290;SDS011;26000;48.304;13.626;2023-03-01T05:23:50;47.97;;;27.20;;
40290;SDS011;26000;48.304;13.626;2023-03-01T05:26:16;44.35;;;26.52;;
40290;SDS011;26000;48.304;13.626;2023-03-01T05:28:44;47.60;;;26.42;;
40290;SDS011;26000;48.304;13.626;2023-03-01T05:31:10;42.33;;;25.83;;
40290;SDS011;26000;48.304;13.626;2023-03-01T05:33:39;44.20;;;25.25;;
40290;SDS011;26000;48.304;13.626;2023-03-01T05:36:06;42.90;;;24.63;;
40290;SDS011;26000;48.304;13.626;2023-03-01T05:38:33;41.13;;;25.27;;
40290;SDS011;26000;48.304;13.626;2023-03-01T05:40:59;43.80;;;26.15;;
40290;SDS011;26000;48.304;13.626;2023-03-01T05:43:25;42.45;;;26.13;;
40290;SDS011;26000;48.304;13.626;2023-03-01T05:45:50;46.92;;;27.35;;
40290;SDS011;26000;48.304;13.626;2023-03-01T05:48:16;48.53;;;27.63;;
40290;SDS011;26000;48.304;13.626;2023-03-01T05:50:44;42.78;;;25.98;;
40290;SDS011;26000;48.304;13.626;2023-03-01T05:55:39;47.10;;;26.08;;
40290;SDS011;26000;48.304;13.626;2023-03-01T05:58:06;44.08;;;25.60;;
40290;SDS011;26000;48.304;13.626;2023-03-01T06:00:34;40.05;;;24.60;;
40290;SDS011;26000;48.304;13.626;2023-03-01T06:03:00;43.55;;;25.80;;
40290;SDS011;26000;48.304;13.626;2023-03-01T06:05:26;43.97;;;26.58;;
40290;SDS011;26000;48.304;13.626;2023-03-01T06:07:52;48.30;;;27.50;;
40290;SDS011;26000;48.304;13.626;2023-03-01T06:10:19;50.88;;;26.95;;
40290;SDS011;26000;48.304;13.626;2023-03-01T06:12:46;47.05;;;26.85;;
40290;SDS011;26000;48.304;13.626;2023-03-01T06:15:12;43.78;;;26.52;;
40290;SDS011;26000;48.304;13.626;2023-03-01T06:17:40;41.60;;;25.90;;
40290;SDS011;26000;48.304;13.626;2023-03-01T06:20:09;42.28;;;25.17;;
40290;SDS011;26000;48.304;13.626;2023-03-01T06:22:40;42.42;;;25.98;;
40290;SDS011;26000;48.304;13.626;2023-03-01T06:25:07;44.85;;;26.17;;
40290;SDS011;26000;48.304;13.626;2023-03-01T06:27:33;48.90;;;27.10;;
40290;SDS011;26000;48.304;13.626;2023-03-01T06:29:58;41.60;;;26.15;;
40290;SDS011;26000;48.304;13.626;2023-03-01T06:32:24;45.60;;;26.83;;
40290;SDS011;26000;48.304;13.626;2023-03-01T06:34:50;44.65;;;26.50;;
40290;SDS011;26000;48.304;13.626;2023-03-01T06:37:16;48.15;;;28.67;;
40290;SDS011;26000;48.304;13.626;2023-03-01T06:39:41;48.15;;;26.83;;
40290;SDS011;26000;48.304;13.626;2023-03-01T06:42:07;51.75;;;27.48;;
40290;SDS011;26000;48.304;13.626;2023-03-01T06:44:35;49.63;;;27.52;;
40290;SDS011;26000;48.304;13.626;2023-03-01T06:47:01;50.30;;;28.10;;
40290;SDS011;26000;48.304;13.626;2023-03-01T06:49:26;41.47;;;26.58;;
40290;SDS011;26000;48.304;13.626;2023-03-01T06:51:52;41.95;;;26.42;;
40290;SDS011;26000;48.304;13.626;2023-03-01T06:54:18;45.47;;;27.55;;
40290;SDS011;26000;48.304;13.626;2023-03-01T06:56:46;46.67;;;28.42;;
40290;SDS011;26000;48.304;13.626;2023-03-01T06:59:11;47.08;;;28.25;;
40290;SDS011;26000;48.304;13.626;2023-03-01T07:01:37;47.15;;;27.63;;
40290;SDS011;26000;48.304;13.626;2023-03-01T07:04:03;46.78;;;28.08;;
40290;SDS011;26000;48.304;13.626;2023-03-01T07:06:29;57.17;;;29.45;;
40290;SDS011;26000;48.304;13.626;2023-03-01T07:08:55;52.78;;;31.00;;
40290;SDS011;26000;48.304;13.626;2023-03-01T07:11:20;49.40;;;28.98;;
40290;SDS011;26000;48.304;13.626;2023-03-01T07:13:46;45.42;;;28.10;;
40290;SDS011;26000;48.304;13.626;2023-03-01T07:16:12;45.20;;;28.52;;
40290;SDS011;26000;48.304;13.626;2023-03-01T07:18:39;45.92;;;27.83;;
40290;SDS011;26000;48.304;13.626;2023-03-01T07:21:08;48.83;;;28.42;;
40290;SDS011;26000;48.304;13.626;2023-03-01T07:23:36;44.25;;;27.67;;
40290;SDS011;26000;48.304;13.626;2023-03-01T07:26:01;47.00;;;27.70;;
40290;SDS011;26000;48.304;13.626;2023-03-01T07:28:27;49.10;;;29.15;;
40290;SDS011;26000;48.304;13.626;2023-03-01T07:30:53;48.72;;;29.63;;
40290;SDS011;26000;48.304;13.626;2023-03-01T07:33:19;47.45;;;29.20;;
40290;SDS011;26000;48.304;13.626;2023-03-01T07:35:45;52.13;;;29.33;;
40290;SDS011;26000;48.304;13.626;2023-03-01T07:38:10;51.38;;;29.65;;
40290;SDS011;26000;48.304;13.626;2023-03-01T07:40:36;46.40;;;28.50;;
40290;SDS011;26000;48.304;13.626;2023-03-01T07:43:01;48.83;;;28.30;;
40290;SDS011;26000;48.304;13.626;2023-03-01T07:45:27;46.72;;;28.80;;
40290;SDS011;26000;48.304;13.626;2023-03-01T07:47:54;49.47;;;29.58;;
40290;SDS011;26000;48.304;13.626;2023-03-01T07:50:20;50.25;;;28.83;;
40290;SDS011;26000;48.304;13.626;2023-03-01T07:52:47;44.63;;;28.05;;
40290;SDS011;26000;48.304;13.626;2023-03-01T07:55:14;45.10;;;28.80;;
40290;SDS011;26000;48.304;13.626;2023-03-01T07:57:40;47.55;;;29.13;;
40290;SDS011;26000;48.304;13.626;2023-03-01T08:00:06;46.50;;;28.35;;
40290;SDS011;26000;48.304;13.626;2023-03-01T08:02:35;48.22;;;28.92;;
40290;SDS011;26000;48.304;13.626;2023-03-01T08:05:00;48.78;;;28.63;;
40290;SDS011;26000;48.304;13.626;2023-03-01T08:07:26;49.25;;;29.48;;
40290;SDS011;26000;48.304;13.626;2023-03-01T08:09:52;48.10;;;28.33;;
40290;SDS011;26000;48.304;13.626;2023-03-01T08:12:17;50.22;;;28.23;;
40290;SDS011;26000;48.304;13.626;2023-03-01T08:14:43;48.42;;;28.95;;
40290;SDS011;26000;48.304;13.626;2023-03-01T08:17:08;43.40;;;27.45;;
40290;SDS011;26000;48.304;13.626;2023-03-01T08:19:34;48.30;;;28.52;;
40290;SDS011;26000;48.304;13.626;2023-03-01T08:22:02;44.17;;;27.45;;
40290;SDS011;26000;48.304;13.626;2023-03-01T08:24:28;45.72;;;26.80;;
40290;SDS011;26000;48.304;13.626;2023-03-01T08:26:54;45.17;;;27.88;;
40290;SDS011;26000;48.304;13.626;2023-03-01T08:29:20;45.53;;;27.65;;
40290;SDS011;26000;48.304;13.626;2023-03-01T08:31:46;48.50;;;29.50;;
40290;SDS011;26000;48.304;13.626;2023-03-01T08:34:14;49.90;;;28.77;;
40290;SDS011;26000;48.304;13.626;2023-03-01T08:36:42;45.78;;;28.25;;
40290;SDS011;26000;48.304;13.626;2023-03-01T08:39:10;48.17;;;27.95;;
40290;SDS011;26000;48.304;13.626;2023-03-01T08:41:38;51.35;;;28.08;;
40290;SDS011;26000;48.304;13.626;2023-03-01T08:44:04;49.85;;;29.42;;
40290;SDS011;26000;48.304;13.626;2023-03-01T08:46:31;42.03;;;26.80;;
40290;SDS011;26000;48.304;13.626;2023-03-01T08:48:59;42.65;;;26.40;;
40290;SDS011;26000;48.304;13.626;2023-03-01T08:51:25;44.38;;;26.77;;
40290;SDS011;26000;48.304;13.626;2023-03-01T08:53:51;42.42;;;26.80;;
40290;SDS011;26000;48.304;13.626;2023-03-01T08:56:17;45.22;;;28.08;;
40290;SDS011;26000;48.304;13.626;2023-03-01T08:58:44;42.13;;;26.45;;
40290;SDS011;26000;48.304;13.626;2023-03-01T09:01:12;45.63;;;27.48;;
40290;SDS011;26000;48.304;13.626;2023-03-01T09:03:39;44.20;;;27.15;;
40290;SDS011;26000;48.304;13.626;2023-03-01T09:06:06;44.17;;;26.92;;
40290;SDS011;26000;48.304;13.626;2023-03-01T09:08:39;41.05;;;24.85;;
40290;SDS011;26000;48.304;13.626;2023-03-01T09:11:09;41.47;;;26.55;;
40290;SDS011;26000;48.304;13.626;2023-03-01T09:13:36;47.33;;;26.80;;
40290;SDS011;26000;48.304;13.626;2023-03-01T09:16:02;44.50;;;25.98;;
40290;SDS011;26000;48.304;13.626;2023-03-01T09:18:29;44.70;;;26.50;;
40290;SDS011;26000;48.304;13.626;2023-03-01T09:21:02;44.22;;;26.05;;
40290;SDS011;26000;48.304;13.626;2023-03-01T09:23:32;42.55;;;26.52;;
40290;SDS011;26000;48.304;13.626;2023-03-01T09:26:03;39.90;;;25.40;;
40290;SDS011;26000;48.304;13.626;2023-03-01T09:28:30;41.05;;;26.35;;
40290;SDS011;26000;48.304;13.626;2023-03-01T09:30:59;40.25;;;25.30;;
40290;SDS011;26000;48.304;13.626;2023-03-01T09:33:26;43.50;;;25.95;;
40290;SDS011;26000;48.304;13.626;2023-03-01T09:35:59;38.92;;;25.30;;
40290;SDS011;26000;48.304;13.626;2023-03-01T09:38:29;44.97;;;24.55;;
40290;SDS011;26000;48.304;13.626;2023-03-01T09:40:55;41.78;;;25.58;;
40290;SDS011;26000;48.304;13.626;2023-03-01T09:43:23;44.05;;;25.95;;
40290;SDS011;26000;48.304;13.626;2023-03-01T09:46:05;42.35;;;24.67;;
40290;SDS011;26000;48.304;13.626;2023-03-01T09:48:37;39.35;;;24.73;;
40290;SDS011;26000;48.304;13.626;2023-03-01T09:51:32;43.30;;;25.25;;
40290;SDS011;26000;48.304;13.626;2023-03-01T09:54:00;42.67;;;26.67;;
40290;SDS011;26000;48.304;13.626;2023-03-01T09:56:34;44.35;;;26.63;;
40290;SDS011;26000;48.304;13.626;2023-03-01T09:59:10;40.72;;;24.73;;
40290;SDS011;26000;48.304;13.626;2023-03-01T10:01:48;42.33;;;25.60;;
40290;SDS011;26000;48.304;13.626;2023-03-01T10:04:28;39.20;;;24.52;;
40290;SDS011;26000;48.304;13.626;2023-03-01T10:09:33;40.28;;;24.40;;
40290;SDS011;26000;48.304;13.626;2023-03-01T10:12:01;43.58;;;25.73;;
40290;SDS011;26000;48.304;13.626;2023-03-01T10:17:20;41.15;;;26.13;;
40290;SDS011;26000;48.304;13.626;2023-03-01T10:20:05;39.30;;;23.60;;
40290;SDS011;26000;48.304;13.626;2023-03-01T10:22:50;36.65;;;24.05;;
40290;SDS011;26000;48.304;13.626;2023-03-01T10:28:38;39.60;;;25.40;;
40290;SDS011;26000;48.304;13.626;2023-03-01T10:31:04;39.88;;;24.60;;
40290;SDS011;26000;48.304;13.626;2023-03-01T10:33:37;41.38;;;24.63;;
40290;SDS011;26000;48.304;13.626;2023-03-01T10:36:06;40.00;;;24.38;;
40290;SDS011;26000;48.304;13.626;2023-03-01T10:38:46;41.60;;;24.23;;
40290;SDS011;26000;48.304;13.626;2023-03-01T10:41:18;39.10;;;23.20;;
40290;SDS011;26000;48.304;13.626;2023-03-01T10:43:52;35.63;;;22.58;;
40290;SDS011;26000;48.304;13.626;2023-03-01T10:49:12;32.55;;;22.48;;
40290;SDS011;26000;48.304;13.626;2023-03-01T10:51:41;39.55;;;23.13;;
40290;SDS011;26000;48.304;13.626;2023-03-01T10:54:20;35.72;;;23.00;;
40290;SDS011;26000;48.304;13.626;2023-03-01T10:56:57;35.17;;;21.80;;
40290;SDS011;26000;48.304;13.626;2023-03-01T11:02:21;30.63;;;19.67;;
40290;SDS011;26000;48.304;13.626;2023-03-01T11:07:22;32.00;;;19.67;;
40290;SDS011;26000;48.304;13.626;2023-03-01T11:09:47;30.77;;;18.65;;
40290;SDS011;26000;48.304;13.626;2023-03-01T11:12:14;30.25;;;17.77;;
40290;SDS011;26000;48.304;13.626;2023-03-01T11:14:51;31.60;;;18.60;;
40290;SDS011;26000;48.304;13.626;2023-03-01T11:17:27;32.30;;;18.30;;
40290;SDS011;26000;48.304;13.626;2023-03-01T11:20:00;31.00;;;18.02;;
40290;SDS011;26000;48.304;13.626;2023-03-01T11:22:35;28.95;;;18.75;;
40290;SDS011;26000;48.304;13.626;2023-03-01T11:25:01;28.45;;;17.38;;
40290;SDS011;26000;48.304;13.626;2023-03-01T11:27:28;27.63;;;18.13;;
40290;SDS011;26000;48.304;13.626;2023-03-01T11:30:12;28.80;;;18.48;;
40290;SDS011;26000;48.304;13.626;2023-03-01T11:32:53;30.60;;;18.40;;
40290;SDS011;26000;48.304;13.626;2023-03-01T11:35:32;35.05;;;18.88;;
40290;SDS011;26000;48.304;13.626;2023-03-01T11:43:33;23.83;;;15.43;;
40290;SDS011;26000;48.304;13.626;2023-03-01T12:03:23;22.55;;;12.95;;
40290;SDS011;26000;48.304;13.626;2023-03-01T12:06:05;20.30;;;13.63;;
40290;SDS011;26000;48.304;13.626;2023-03-01T12:08:41;24.48;;;14.13;;
40290;SDS011;26000;48.304;13.626;2023-03-01T12:19:54;19.77;;;12.10;;
40290;SDS011;26000;48.304;13.626;2023-03-01T12:42:05;20.13;;;13.18;;
40290;SDS011;26000;48.304;13.626;2023-03-01T12:44:47;24.23;;;13.40;;
40290;SDS011;26000;48.304;13.626;2023-03-01T12:47:56;22.65;;;13.18;;
40290;SDS011;26000;48.304;13.626;2023-03-01T12:50:38;23.50;;;12.35;;
40290;SDS011;26000;48.304;13.626;2023-03-01T12:53:13;20.15;;;12.38;;
40290;SDS011;26000;48.304;13.626;2023-03-01T12:55:48;20.70;;;11.85;;
40290;SDS011;26000;48.304;13.626;2023-03-01T12:58:28;19.60;;;11.40;;
40290;SDS011;26000;48.304;13.626;2023-03-01T13:17:47;19.45;;;12.80;;
40290;SDS011;26000;48.304;13.626;2023-03-01T13:20:17;21.33;;;12.02;;
40290;SDS011;26000;48.304;13.626;2023-03-01T13:22:46;21.80;;;12.73;;
40290;SDS011;26000;48.304;13.626;2023-03-01T13:25:14;18.48;;;11.68;;
40290;SDS011;26000;48.304;13.626;2023-03-01T13:27:45;18.25;;;11.25;;
40290;SDS011;26000;48.304;13.626;2023-03-01T13:30:54;22.83;;;12.68;;
40290;SDS011;26000;48.304;13.626;2023-03-01T13:36:09;19.02;;;11.15;;
40290;SDS011;26000;48.304;13.626;2023-03-01T13:41:15;16.67;;;10.05;;
40290;SDS011;26000;48.304;13.626;2023-03-01T13:44:01;19.73;;;10.52;;
40290;SDS011;26000;48.304;13.626;2023-03-01T13:46:49;23.15;;;11.20;;
40290;SDS011;26000;48.304;13.626;2023-03-01T13:49:18;21.17;;;10.77;;
40290;SDS011;26000;48.304;13.626;2023-03-01T13:51:50;22.40;;;11.45;;
40290;SDS011;26000;48.304;13.626;2023-03-01T13:54:18;20.83;;;12.05;;
40290;SDS011;26000;48.304;13.626;2023-03-01T13:56:57;21.52;;;11.13;;
40290;SDS011;26000;48.304;13.626;2023-03-01T13:59:25;18.65;;;11.10;;
40290;SDS011;26000;48.304;13.626;2023-03-01T14:01:52;18.10;;;10.93;;
40290;SDS011;26000;48.304;13.626;2023-03-01T14:04:23;18.98;;;12.35;;
40290;SDS011;26000;48.304;13.626;2023-03-01T14:07:13;20.65;;;11.73;;
40290;SDS011;26000;48.304;13.626;2023-03-01T14:09:47;21.33;;;11.15;;
40290;SDS011;26000;48.304;13.626;2023-03-01T14:20:16;19.63;;;10.90;;
40290;SDS011;26000;48.304;13.626;2023-03-01T14:22:42;20.10;;;11.68;;
40290;SDS011;26000;48.304;13.626;2023-03-01T14:27:51;19.98;;;11.48;;
40290;SDS011;26000;48.304;13.626;2023-03-01T14:30:26;23.08;;;12.73;;
40290;SDS011;26000;48.304;13.626;2023-03-01T14:32:57;28.52;;;13.90;;
40290;SDS011;26000;48.304;13.626;2023-03-01T14:35:26;23.05;;;12.85;;
40290;SDS011;26000;48.304;13.626;2023-03-01T14:37:53;25.15;;;12.93;;
40290;SDS011;26000;48.304;13.626;2023-03-01T14:40:26;26.83;;;13.50;;
40290;SDS011;26000;48.304;13.626;2023-03-01T14:42:53;26.38;;;13.48;;
40290;SDS011;26000;48.304;13.626;2023-03-01T14:45:25;23.65;;;13.75;;
40290;SDS011;26000;48.304;13.626;2023-03-01T14:47:53;28.90;;;13.50;;
40290;SDS011;26000;48.304;13.626;2023-03-01T14:50:25;25.42;;;13.43;;
40290;SDS011;26000;48.304;13.626;2023-03-01T14:52:56;27.17;;;13.55;;
40290;SDS011;26000;48.304;13.626;2023-03-01T14:57:57;22.77;;;13.63;;
40290;SDS011;26000;48.304;13.626;2023-03-01T15:00:24;21.70;;;13.00;;
40290;SDS011;26000;48.304;13.626;2023-03-01T15:02:56;25.05;;;14.32;;
40290;SDS011;26000;48.304;13.626;2023-03-01T15:05:27;23.45;;;13.90;;
40290;SDS011;26000;48.304;13.626;2023-03-01T15:07:56;25.17;;;14.75;;
40290;SDS011;26000;48.304;13.626;2023-03-01T15:10:25;24.65;;;14.43;;
40290;SDS011;26000;48.304;13.626;2023-03-01T15:13:09;29.63;;;14.68;;
40290;SDS011;26000;48.304;13.626;2023-03-01T15:15:40;29.05;;;14.32;;
40290;SDS011;26000;48.304;13.626;2023-03-01T15:20:42;26.33;;;15.52;;
40290;SDS011;26000;48.304;13.626;2023-03-01T15:23:16;27.77;;;15.73;;
40290;SDS011;26000;48.304;13.626;2023-03-01T15:25:43;31.65;;;15.65;;
40290;SDS011;26000;48.304;13.626;2023-03-01T15:28:18;26.63;;;15.30;;
40290;SDS011;26000;48.304;13.626;2023-03-01T15:30:45;27.73;;;14.45;;
40290;SDS011;26000;48.304;13.626;2023-03-01T15:35:55;29.92;;;16.77;;
40290;SDS011;26000;48.304;13.626;2023-03-01T15:40:59;25.15;;;15.25;;
40290;SDS011;26000;48.304;13.626;2023-03-01T15:43:37;24.27;;;14.75;;
40290;SDS011;26000;48.304;13.626;2023-03-01T15:46:30;28.52;;;16.13;;
40290;SDS011;26000;48.304;13.626;2023-03-01T15:48:59;36.67;;;17.15;;
40290;SDS011;26000;48.304;13.626;2023-03-01T15:51:32;27.55;;;16.13;;
40290;SDS011;26000;48.304;13.626;2023-03-01T15:54:22;32.05;;;16.77;;
40290;SDS011;26000;48.304;13.626;2023-03-01T15:56:47;31.17;;;17.30;;
40290;SDS011;26000;48.304;13.626;2023-03-01T15:59:13;28.15;;;17.05;;
40290;SDS011;26000;48.304;13.626;2023-03-01T16:01:40;29.52;;;17.02;;
40290;SDS011;26000;48.304;13.626;2023-03-01T16:04:06;27.05;;;16.35;;
40290;SDS011;26000;48.304;13.626;2023-03-01T16:06:31;30.13;;;17.00;;
40290;SDS011;26000;48.304;13.626;2023-03-01T16:08:57;31.02;;;17.17;;
40290;SDS011;26000;48.304;13.626;2023-03-01T16:11:23;32.15;;;17.13;;
40290;SDS011;26000;48.304;13.626;2023-03-01T16:13:48;33.08;;;17.38;;
40290;SDS011;26000;48.304;13.626;2023-03-01T16:16:15;32.28;;;18.77;;
40290;SDS011;26000;48.304;13.626;2023-03-01T16:18:42;30.48;;;17.25;;
40290;SDS011;26000;48.304;13.626;2023-03-01T16:21:11;31.38;;;17.25;;
40290;SDS011;26000;48.304;13.626;2023-03-01T16:23:40;34.78;;;18.20;;
40290;SDS011;26000;48.304;13.626;2023-03-01T16:26:06;35.42;;;19.25;;
40290;SDS011;26000;48.304;13.626;2023-03-01T16:28:32;30.80;;;17.60;;
40290;SDS011;26000;48.304;13.626;2023-03-01T16:30:57;34.50;;;18.88;;